»·PEaware :: N8949G KBLI-KPAE

N8949G :: KBLI-KPAE

FLIGHT INFORMATION

Flight Status: Arrived
Operator: Privately registered:
United States
More flights under this callsign
Pilot: Guy T. (43757)
Aircraft: CESSNA 172 SKYHAWK
(C172)
More flights by this aircraft type
Origin: KBLI Bellingham Intl
United States
Destination: KPAE Paine Field/Snohomish Co.
United States
More flights between these airports :: More routes between these airports
Route: CVV AMEKE
File this flight plan on PilotEdge
Remarks:
Altitude:
(Current/Filed)
4,000ft
Speed:
(Current/Filed)
120kts
Departed: 20-Apr-23 07:35 PM
Arrived: 20-Apr-23 08:14 PM
Distance/Time
Traveled:
54nm/0:39
Distance/Time
To Go:
Arrived

Flight Plot

Page will automatically refresh every two minutes.

Flight plan parsing failed; only flown route is shown


Map Options




Map Legend


Flown Route
Filed Route
Departure Airport
Arrival Airport
Navaid (VOR, NDB)
Fix

Horizontal Profiles

Position Reports

Time Latitude Longitude Heading Altitude Ground
Speed
20-Apr-23 19:19 48.784196 -122.536138 0 171ft 0kts
20-Apr-23 19:26 48.784367 -122.536138 344 171ft 0kts
20-Apr-23 19:27 48.784367 -122.536138 344 171ft 0kts
20-Apr-23 19:28 48.784367 -122.536138 344 171ft 0kts
20-Apr-23 19:29 48.784367 -122.536138 344 171ft 0kts
20-Apr-23 19:30 48.784367 -122.536138 344 171ft 0kts
20-Apr-23 19:31 48.784367 -122.536138 344 171ft 0kts
20-Apr-23 19:32 48.784367 -122.536138 344 171ft 0kts
20-Apr-23 19:33 48.783580 -122.536147 261 169ft 0kts
20-Apr-23 19:34 48.785455 -122.537551 359 169ft 49kts
20-Apr-23 19:35 48.808697 -122.543262 293 872ft 104kts
20-Apr-23 19:36 48.786739 -122.559135 182 1788ft 101kts
20-Apr-23 19:37 48.758350 -122.561950 188 2610ft 104kts
20-Apr-23 19:38 48.729745 -122.565962 180 3379ft 104kts
20-Apr-23 19:39 48.700058 -122.569244 183 3934ft 116kts
20-Apr-23 19:40 48.666815 -122.577612 195 3801ft 117kts
20-Apr-23 19:41 48.635957 -122.586520 195 3775ft 108kts
20-Apr-23 19:42 48.606902 -122.598646 193 3777ft 108kts
20-Apr-23 19:43 48.578028 -122.609409 192 3820ft 106kts
20-Apr-23 19:44 48.549019 -122.619367 192 3856ft 106kts
20-Apr-23 19:45 48.520069 -122.629309 190 3893ft 106kts
20-Apr-23 19:46 48.491199 -122.639579 197 3929ft 105kts
20-Apr-23 19:47 48.461838 -122.649122 193 3876ft 110kts
20-Apr-23 19:48 48.431841 -122.659513 192 3849ft 109kts
20-Apr-23 19:49 48.402027 -122.669744 192 3823ft 109kts
20-Apr-23 19:50 48.372204 -122.680019 192 3812ft 109kts
20-Apr-23 19:51 48.342995 -122.690544 193 3847ft 107kts
20-Apr-23 19:52 48.314134 -122.700551 191 3870ft 106kts
20-Apr-23 19:53 48.284916 -122.710873 191 3882ft 107kts
20-Apr-23 19:54 48.255597 -122.720163 191 3885ft 108kts
20-Apr-23 19:55 48.229020 -122.706399 135 3872ft 108kts
20-Apr-23 19:56 48.207459 -122.674260 137 3851ft 108kts
20-Apr-23 19:57 48.201611 -122.631739 93 3850ft 107kts
20-Apr-23 19:58 48.199947 -122.586318 90 3860ft 107kts
20-Apr-23 19:59 48.198994 -122.540501 85 3866ft 107kts
20-Apr-23 20:00 48.198984 -122.494673 88 3885ft 107kts
20-Apr-23 20:01 48.192784 -122.451450 135 3778ft 109kts
20-Apr-23 20:02 48.168578 -122.423544 139 3361ft 107kts
20-Apr-23 20:03 48.144667 -122.395960 144 2665ft 107kts
20-Apr-23 20:04 48.120196 -122.370914 149 1986ft 106kts
20-Apr-23 20:05 48.097302 -122.348262 146 1735ft 96kts
20-Apr-23 20:06 48.074901 -122.325469 146 1908ft 98kts
20-Apr-23 20:07 48.053961 -122.303251 144 1889ft 86kts
20-Apr-23 20:08 48.032222 -122.288097 173 1944ft 86kts
20-Apr-23 20:09 48.007721 -122.287331 174 1785ft 90kts
20-Apr-23 20:10 47.983429 -122.287252 178 1766ft 86kts
20-Apr-23 20:11 47.959394 -122.286860 178 1320ft 89kts
20-Apr-23 20:12 47.934780 -122.286034 173 900ft 86kts
20-Apr-23 20:13 47.916705 -122.285674 180 560ft 30kts
20-Apr-23 20:14 47.913856 -122.283509 178 561ft 15kts
20-Apr-23 20:15 47.912989 -122.282174 47 563ft 0kts

Navigation Log

Ident Type
Flight plan parsing failed, navigation log unavailable